createdAt,value
2023-04-12T00:00:04.384Z,0.77
2023-04-12T00:02:06.777Z,1.05
2023-04-12T00:04:10.273Z,1.20
2023-04-12T00:06:13.580Z,1.65
2023-04-12T00:08:17.165Z,1.40
2023-04-12T00:10:19.807Z,1.30
2023-04-12T00:12:21.962Z,1.75
2023-04-12T00:14:24.507Z,1.20
2023-04-12T00:16:26.858Z,2.47
2023-04-12T00:18:29.084Z,1.58
2023-04-12T00:20:31.198Z,1.27
2023-04-12T00:22:33.859Z,1.02
2023-04-12T00:24:36.046Z,1.92
2023-04-12T00:26:38.072Z,2.05
2023-04-12T00:28:40.752Z,1.77
2023-04-12T00:30:42.864Z,1.38
2023-04-12T00:32:45.079Z,1.77
2023-04-12T00:34:47.349Z,1.23
2023-04-12T00:36:50.091Z,1.65
2023-04-12T00:38:52.085Z,1.35
2023-04-12T00:40:54.279Z,1.52
2023-04-12T00:42:58.158Z,1.02
2023-04-12T00:45:00.248Z,1.42
2023-04-12T00:47:04.215Z,2.35
2023-04-12T00:49:06.788Z,1.65
2023-04-12T00:51:09.547Z,2.95
2023-04-12T00:53:13.766Z,1.55
2023-04-12T00:55:16.213Z,1.80
2023-04-12T00:57:18.416Z,1.67
2023-04-12T00:59:20.653Z,2.13
2023-04-12T01:01:22.893Z,1.20
2023-04-12T01:03:28.104Z,1.63
2023-04-12T01:05:30.789Z,1.77
2023-04-12T01:07:33.600Z,2.45
2023-04-12T01:09:40.079Z,1.60
2023-04-12T01:11:46.107Z,2.38
2023-04-12T01:13:59.191Z,1.30
2023-04-12T01:16:12.993Z,1.50
2023-04-12T01:18:20.005Z,1.48
2023-04-12T01:20:26.698Z,1.30
2023-04-12T01:22:33.574Z,1.92
2023-04-12T01:24:41.919Z,1.80
2023-04-12T01:26:48.056Z,1.10
2023-04-12T01:28:54.480Z,1.20
2023-04-12T01:30:56.795Z,1.40
2023-04-12T01:33:02.149Z,2.30
2023-04-12T01:35:07.581Z,1.75
2023-04-12T01:37:10.254Z,1.42
2023-04-12T01:39:12.346Z,1.98
2023-04-12T01:41:14.843Z,1.75
2023-04-12T01:43:16.909Z,1.30
2023-04-12T01:45:19.145Z,1.60
2023-04-12T01:47:21.480Z,1.67
2023-04-12T01:49:32.990Z,1.40
2023-04-12T01:51:38.506Z,2.05
2023-04-12T01:53:48.005Z,1.73
2023-04-12T01:55:52.211Z,1.10
2023-04-12T01:57:54.752Z,1.88
2023-04-12T01:59:59.255Z,2.20
2023-04-12T02:02:03.653Z,1.85
2023-04-12T02:04:07.474Z,2.17
2023-04-12T02:06:11.191Z,2.10
2023-04-12T02:08:13.281Z,2.42
2023-04-12T02:10:15.722Z,1.50
2023-04-12T02:12:17.821Z,1.95
2023-04-12T02:14:19.886Z,2.92
2023-04-12T02:16:23.326Z,1.95
2023-04-12T02:18:25.404Z,1.98
2023-04-12T02:20:27.623Z,1.58
2023-04-12T02:22:29.604Z,1.90
2023-04-12T02:24:32.009Z,1.60
2023-04-12T02:26:34.007Z,2.15
2023-04-12T02:28:37.322Z,1.40
2023-04-12T02:30:42.025Z,1.75
2023-04-12T02:32:45.006Z,2.05
2023-04-12T02:34:51.558Z,2.45
2023-04-12T02:36:53.469Z,2.85
2023-04-12T02:38:56.332Z,1.73
2023-04-12T02:40:58.274Z,1.25
2023-04-12T02:43:00.597Z,1.80
2023-04-12T02:45:02.650Z,1.60
2023-04-12T02:47:04.616Z,1.83
2023-04-12T02:49:06.613Z,1.52
2023-04-12T02:51:08.565Z,1.40
2023-04-12T02:53:10.659Z,1.63
2023-04-12T02:55:12.654Z,3.22
2023-04-12T02:57:16.302Z,1.45
2023-04-12T02:59:18.307Z,2.22
2023-04-12T03:01:20.297Z,1.70
2023-04-12T03:03:22.501Z,3.45
2023-04-12T03:05:24.834Z,1.77
2023-04-12T03:07:28.047Z,1.67
2023-04-12T03:09:29.969Z,1.40
2023-04-12T03:11:32.068Z,3.00
2023-04-12T03:13:34.114Z,1.90
2023-04-12T03:15:36.120Z,1.88
2023-04-12T03:17:38.230Z,1.13
2023-04-12T03:19:40.197Z,2.00
2023-04-12T03:21:42.151Z,1.60
2023-04-12T03:23:44.096Z,1.75
2023-04-12T03:25:46.203Z,1.77
2023-04-12T03:27:48.155Z,1.83
2023-04-12T03:29:50.170Z,1.52
2023-04-12T03:31:52.142Z,1.92
2023-04-12T03:33:54.603Z,1.60
2023-04-12T03:35:56.676Z,1.70
2023-04-12T03:37:58.628Z,3.03
2023-04-12T03:40:01.007Z,1.27
2023-04-12T03:42:02.955Z,1.17
2023-04-12T03:44:05.115Z,1.75
2023-04-12T03:46:07.289Z,1.95
2023-04-12T03:48:11.161Z,1.50
2023-04-12T03:50:13.252Z,1.92
2023-04-12T03:52:15.294Z,1.80
2023-04-12T03:54:17.493Z,1.77
2023-04-12T03:56:21.043Z,1.60
2023-04-12T03:58:23.341Z,1.85
2023-04-12T04:00:25.358Z,1.63
2023-04-12T04:02:27.953Z,2.15
2023-04-12T04:04:30.369Z,1.92
2023-04-12T04:06:33.317Z,2.08
2023-04-12T04:08:35.336Z,1.40
2023-04-12T04:10:37.596Z,1.35
2023-04-12T04:12:39.515Z,2.40
2023-04-12T04:14:41.548Z,1.77
2023-04-12T04:16:43.577Z,1.05
2023-04-12T04:18:45.762Z,1.92
2023-04-12T04:20:47.721Z,1.38
2023-04-12T04:22:50.024Z,1.20
2023-04-12T04:24:51.994Z,1.77
2023-04-12T04:26:54.463Z,1.25
2023-04-12T04:28:56.368Z,1.45
2023-04-12T04:31:05.877Z,1.63
2023-04-12T04:33:08.985Z,1.88
2023-04-12T04:35:11.238Z,1.38
2023-04-12T04:37:13.505Z,1.77
2023-04-12T04:39:15.416Z,1.52
2023-04-12T04:41:17.710Z,1.38
2023-04-12T04:43:20.302Z,1.90
2023-04-12T04:45:26.803Z,1.10
2023-04-12T04:47:30.726Z,1.10
2023-04-12T04:49:33.969Z,1.80
2023-04-12T04:51:36.747Z,1.92
2023-04-12T04:53:38.782Z,1.17
2023-04-12T04:55:41.440Z,1.30
2023-04-12T04:57:44.218Z,1.25
2023-04-12T04:59:46.288Z,2.53
2023-04-12T05:01:48.353Z,1.65
2023-04-12T05:03:51.940Z,1.67
2023-04-12T05:05:55.114Z,1.63
2023-04-12T05:07:58.215Z,1.85
2023-04-12T05:10:00.400Z,1.58
2023-04-12T05:12:02.423Z,1.30
2023-04-12T05:14:04.386Z,1.20
2023-04-12T05:16:08.201Z,1.15
2023-04-12T05:18:10.330Z,1.95
2023-04-12T05:20:12.461Z,1.13
2023-04-12T05:22:14.714Z,1.20
2023-04-12T05:24:16.716Z,1.65
2023-04-12T05:26:18.893Z,1.08
2023-04-12T05:28:20.835Z,2.60
2023-04-12T05:30:22.924Z,1.63
2023-04-12T05:32:26.268Z,1.17
2023-04-12T05:34:28.351Z,1.35
2023-04-12T05:36:30.724Z,1.70
2023-04-12T05:38:32.770Z,1.98
2023-04-12T05:40:36.544Z,1.30
2023-04-12T05:42:38.728Z,1.30
2023-04-12T05:44:41.659Z,1.17
2023-04-12T05:46:43.709Z,0.77
2023-04-12T05:48:45.730Z,3.28
2023-04-12T05:50:52.165Z,1.60
2023-04-12T05:52:55.832Z,2.17
2023-04-12T05:54:57.802Z,1.45
2023-04-12T05:56:59.794Z,1.63
2023-04-12T05:59:02.519Z,1.67
2023-04-12T06:01:05.644Z,1.17
2023-04-12T06:03:09.653Z,1.67
2023-04-12T06:05:13.193Z,1.17
2023-04-12T06:07:19.044Z,2.03
2023-04-12T06:09:20.998Z,2.25
2023-04-12T06:11:23.102Z,1.45
2023-04-12T06:13:25.368Z,1.33
2023-04-12T06:15:27.415Z,1.17
2023-04-12T06:17:29.437Z,1.80
2023-04-12T06:19:31.559Z,1.77
2023-04-12T06:21:33.571Z,0.88
2023-04-12T06:23:35.846Z,1.35
2023-04-12T06:25:38.052Z,2.83
2023-04-12T06:27:40.114Z,1.02
2023-04-12T06:29:42.192Z,2.03
2023-04-12T06:31:44.417Z,2.70
2023-04-12T06:33:47.464Z,1.67
2023-04-12T06:35:50.128Z,1.55
2023-04-12T06:37:52.151Z,1.30
2023-04-12T06:39:54.064Z,1.35
2023-04-12T06:41:57.742Z,1.58
2023-04-12T06:43:59.831Z,0.70
2023-04-12T06:46:03.487Z,1.33
2023-04-12T06:48:05.643Z,2.53
2023-04-12T06:50:08.480Z,1.15
2023-04-12T06:52:10.673Z,2.53
2023-04-12T06:54:14.176Z,1.48
2023-04-12T06:56:18.406Z,1.30
2023-04-12T06:58:21.016Z,1.50
2023-04-12T07:00:23.611Z,1.00
2023-04-12T07:02:25.725Z,1.17
2023-04-12T07:04:27.888Z,1.83
2023-04-12T07:06:30.034Z,1.08
2023-04-12T07:08:35.139Z,1.05
2023-04-12T07:10:37.552Z,1.70
2023-04-12T07:12:39.785Z,2.20
2023-04-12T07:14:44.052Z,1.38
2023-04-12T07:16:46.819Z,1.10
2023-04-12T07:18:49.446Z,1.00
2023-04-12T07:20:54.656Z,0.95
2023-04-12T07:22:56.797Z,1.20
2023-04-12T07:24:59.361Z,1.80
2023-04-12T07:27:01.681Z,1.20
2023-04-12T07:29:05.342Z,1.35
2023-04-12T07:31:07.944Z,0.77
2023-04-12T07:33:19.271Z,1.42
2023-04-12T07:35:22.956Z,1.13
2023-04-12T07:37:25.218Z,2.15
2023-04-12T07:39:29.940Z,0.85
2023-04-12T07:41:32.167Z,1.33
2023-04-12T07:43:34.268Z,0.80
2023-04-12T07:45:38.156Z,1.02
2023-04-12T07:47:40.417Z,1.27
2023-04-12T07:49:42.779Z,1.30
2023-04-12T07:51:45.077Z,1.48
2023-04-12T07:53:48.774Z,2.03
2023-04-12T07:55:52.085Z,1.98
2023-04-12T07:57:54.231Z,1.30
2023-04-12T07:59:57.014Z,1.23
2023-04-12T08:01:59.643Z,1.15
2023-04-12T08:04:05.249Z,1.00
2023-04-12T08:06:13.557Z,1.30
2023-04-12T08:08:15.622Z,0.85
2023-04-12T08:10:17.731Z,1.35
2023-04-12T08:12:21.432Z,1.02
2023-04-12T08:14:23.991Z,1.15
2023-04-12T08:16:26.913Z,0.95
2023-04-12T08:18:29.805Z,0.90
2023-04-12T08:20:32.941Z,0.63
2023-04-12T08:22:35.947Z,0.73
2023-04-12T08:24:38.221Z,0.90
2023-04-12T08:26:40.381Z,0.90
2023-04-12T08:28:43.088Z,1.60
2023-04-12T08:30:46.681Z,0.60
2023-04-12T08:32:48.840Z,0.88
2023-04-12T08:34:53.792Z,0.50
2023-04-12T08:37:06.292Z,1.00
2023-04-12T08:39:09.720Z,0.30
2023-04-12T08:41:11.744Z,0.85
2023-04-12T08:43:15.151Z,1.13
2023-04-12T08:45:17.353Z,0.95
2023-04-12T08:47:21.357Z,0.70
2023-04-12T08:49:25.409Z,0.70
2023-04-12T08:51:28.093Z,0.90
2023-04-12T08:53:30.128Z,0.80
2023-04-12T08:55:32.200Z,0.65
2023-04-12T08:57:36.823Z,1.00
2023-04-12T08:59:42.611Z,1.13
2023-04-12T09:01:45.085Z,0.47
2023-04-12T09:03:47.723Z,0.77
2023-04-12T09:05:50.274Z,0.88
2023-04-12T09:07:52.514Z,0.65
2023-04-12T09:09:55.713Z,1.00
2023-04-12T09:12:08.306Z,0.60
2023-04-12T09:14:18.355Z,0.68
2023-04-12T09:16:35.802Z,0.90
2023-04-12T09:18:50.300Z,0.50
2023-04-12T09:21:08.219Z,1.05
2023-04-12T09:23:17.007Z,0.47
2023-04-12T09:25:19.230Z,1.05
2023-04-12T09:27:21.659Z,0.60
2023-04-12T09:29:26.479Z,0.32
2023-04-12T09:31:29.480Z,0.65
2023-04-12T09:33:43.064Z,0.60
2023-04-12T09:35:45.599Z,0.73
2023-04-12T09:37:58.359Z,0.35
2023-04-12T09:40:05.577Z,0.35
2023-04-12T09:42:17.995Z,0.60
2023-04-12T09:44:30.662Z,0.38
2023-04-12T09:46:34.141Z,0.65
2023-04-12T09:48:37.914Z,0.30
2023-04-12T09:50:40.362Z,0.40
2023-04-12T09:52:42.554Z,0.50
2023-04-12T09:54:46.268Z,0.30
2023-04-12T09:56:49.356Z,0.32
2023-04-12T09:58:54.232Z,0.35
2023-04-12T10:01:00.040Z,0.63
2023-04-12T10:03:02.815Z,0.30
2023-04-12T10:05:06.404Z,0.45
2023-04-12T10:07:10.215Z,0.60
2023-04-12T10:09:14.935Z,0.60
2023-04-12T10:11:18.049Z,0.40
2023-04-12T10:13:20.996Z,0.88
2023-04-12T10:15:25.947Z,0.40
2023-04-12T10:17:29.842Z,1.13
2023-04-12T10:19:34.097Z,0.40
2023-04-12T10:21:36.553Z,0.22
2023-04-12T10:23:38.720Z,0.50
2023-04-12T10:25:44.245Z,0.30
2023-04-12T10:27:47.224Z,0.50
2023-04-12T10:29:49.937Z,0.57
2023-04-12T10:31:52.790Z,0.50
2023-04-12T10:33:56.165Z,0.40
2023-04-12T10:36:03.911Z,0.45
2023-04-12T10:38:07.217Z,0.50
2023-04-12T10:40:17.797Z,0.47
2023-04-12T10:42:27.790Z,1.05
2023-04-12T10:44:30.433Z,0.43
2023-04-12T10:46:37.879Z,0.60
2023-04-12T10:48:51.632Z,0.50
2023-04-12T10:51:16.129Z,0.20
2023-04-12T10:53:23.939Z,0.77
2023-04-12T10:55:30.441Z,0.60
2023-04-12T10:57:39.142Z,0.73
2023-04-12T10:59:51.909Z,0.63
2023-04-12T11:02:10.694Z,0.75
2023-04-12T11:04:26.627Z,0.90
2023-04-12T11:06:35.156Z,0.50
2023-04-12T11:08:41.572Z,0.35
2023-04-12T11:10:47.354Z,0.40
2023-04-12T11:12:55.625Z,0.60
2023-04-12T11:15:02.489Z,0.55
2023-04-12T11:17:09.555Z,0.95
2023-04-12T11:19:13.625Z,0.60
2023-04-12T11:21:16.894Z,0.63
2023-04-12T11:23:20.662Z,0.85
2023-04-12T11:25:23.820Z,0.30
2023-04-12T11:27:29.305Z,0.85
2023-04-12T11:29:34.774Z,0.82
2023-04-12T11:31:39.791Z,0.63
2023-04-12T11:33:42.969Z,0.52
2023-04-12T11:35:47.372Z,0.45
2023-04-12T11:37:50.532Z,1.15
2023-04-12T11:39:56.584Z,1.05
2023-04-12T11:41:59.980Z,0.70
2023-04-12T11:44:04.093Z,1.05
2023-04-12T11:46:07.462Z,0.85
2023-04-12T11:48:14.623Z,0.60
2023-04-12T11:50:31.551Z,0.50
2023-04-12T11:52:35.536Z,1.05
2023-04-12T11:54:38.507Z,1.20
2023-04-12T11:56:43.854Z,0.75
2023-04-12T11:58:48.932Z,0.80
2023-04-12T12:00:51.538Z,0.70
2023-04-12T12:03:06.888Z,0.93
2023-04-12T12:05:11.834Z,0.98
2023-04-12T12:07:17.820Z,0.77
2023-04-12T12:09:21.561Z,0.70
2023-04-12T12:11:25.409Z,0.95
2023-04-12T12:13:28.052Z,1.77
2023-04-12T12:15:44.548Z,1.90
2023-04-12T12:17:51.888Z,1.10
2023-04-12T12:19:59.752Z,1.35
2023-04-12T12:22:13.372Z,0.90
2023-04-12T12:24:16.933Z,1.48
2023-04-12T12:26:25.656Z,0.77
2023-04-12T12:28:28.692Z,0.60
2023-04-12T12:30:32.368Z,1.02
2023-04-12T12:32:37.601Z,0.63
2023-04-12T12:34:42.109Z,0.63
2023-04-12T12:36:44.532Z,0.80
2023-04-12T12:38:49.465Z,0.90
2023-04-12T12:40:53.136Z,0.93
2023-04-12T12:42:56.915Z,0.90
2023-04-12T12:44:59.539Z,1.15
2023-04-12T12:47:10.100Z,0.93
2023-04-12T12:49:16.680Z,1.85
2023-04-12T12:51:20.572Z,1.70
2023-04-12T12:53:24.603Z,1.98
2023-04-12T12:55:28.798Z,1.60
2023-04-12T12:57:32.125Z,1.38
2023-04-12T12:59:34.631Z,1.45
2023-04-12T13:01:37.441Z,1.15
2023-04-12T13:03:41.055Z,1.65
2023-04-12T13:05:43.984Z,1.25
2023-04-12T13:07:47.119Z,1.45
2023-04-12T13:09:50.950Z,1.17
2023-04-12T13:11:53.676Z,1.75
2023-04-12T13:13:58.279Z,1.17
2023-04-12T13:16:00.895Z,2.63
2023-04-12T13:18:03.483Z,1.33
2023-04-12T13:20:06.720Z,0.98
2023-04-12T13:22:09.365Z,1.55
2023-04-12T13:24:11.828Z,1.20
2023-04-12T13:26:14.254Z,2.05
2023-04-12T13:28:17.540Z,1.40
2023-04-12T13:30:20.823Z,1.50
2023-04-12T13:32:23.663Z,1.23
2023-04-12T13:34:26.885Z,1.23
2023-04-12T13:36:29.459Z,0.93
2023-04-12T13:38:32.230Z,1.05
2023-04-12T13:40:36.578Z,1.17
2023-04-12T13:42:39.056Z,0.60
2023-04-12T13:44:44.860Z,0.68
2023-04-12T13:46:47.268Z,0.63
2023-04-12T13:48:49.982Z,0.63
2023-04-12T13:50:53.578Z,0.80
2023-04-12T13:52:58.362Z,1.17
2023-04-12T13:55:01.045Z,1.15
2023-04-12T13:57:04.525Z,0.60
2023-04-12T13:59:07.287Z,0.68
2023-04-12T14:01:10.279Z,0.95
2023-04-12T14:03:13.874Z,0.75
2023-04-12T14:05:16.485Z,0.73
2023-04-12T14:07:18.989Z,0.70
2023-04-12T14:09:26.661Z,0.70
2023-04-12T14:11:29.225Z,0.55
2023-04-12T14:13:31.646Z,0.60
2023-04-12T14:15:33.898Z,0.52
2023-04-12T14:17:37.538Z,0.80
2023-04-12T14:19:44.057Z,0.73
2023-04-12T14:21:54.897Z,0.50
2023-04-12T14:26:00.339Z,0.10
2023-04-12T14:28:03.236Z,0.17
2023-04-12T14:30:07.573Z,0.30
2023-04-12T14:32:10.010Z,0.10
2023-04-12T14:34:13.784Z,0.05
2023-04-12T14:36:16.444Z,0.30
2023-04-12T14:38:18.935Z,0.10
2023-04-12T14:40:21.631Z,0.10
2023-04-12T14:42:24.191Z,0.10
2023-04-12T14:44:27.772Z,0.10
2023-04-12T14:46:33.898Z,0.10
2023-04-12T14:48:36.690Z,0.10
2023-04-12T14:50:39.665Z,0.10
2023-04-12T14:52:42.311Z,0.10
2023-04-12T14:54:44.677Z,0.10
2023-04-12T14:56:54.346Z,0.85
2023-04-12T14:58:58.730Z,0.10
2023-04-12T15:01:01.705Z,0.20
2023-04-12T15:03:05.908Z,0.20
2023-04-12T15:05:12.191Z,0.15
2023-04-12T15:07:14.840Z,0.30
2023-04-12T15:09:18.508Z,0.82
2023-04-12T15:11:23.013Z,0.40
2023-04-12T15:13:33.194Z,0.85
2023-04-12T15:15:36.681Z,0.35
2023-04-12T15:17:39.262Z,0.50
2023-04-12T15:19:41.372Z,0.50
2023-04-12T15:21:46.885Z,0.60
2023-04-12T15:23:53.874Z,0.75
2023-04-12T15:26:03.243Z,0.30
2023-04-12T15:28:06.384Z,0.80
2023-04-12T15:30:11.288Z,0.55
2023-04-12T15:32:13.928Z,1.17
2023-04-12T15:34:16.674Z,0.40
2023-04-12T15:36:19.879Z,0.55
2023-04-12T15:38:23.760Z,0.85
2023-04-12T15:40:26.649Z,0.77
2023-04-12T15:42:29.438Z,0.70
2023-04-12T15:44:32.690Z,0.40
2023-04-12T15:46:36.784Z,0.55
2023-04-12T15:48:39.142Z,0.50
2023-04-12T15:50:42.006Z,0.43
2023-04-12T15:52:44.947Z,0.80
2023-04-12T15:54:47.159Z,0.98
2023-04-12T15:56:51.098Z,0.50
2023-04-12T15:58:57.602Z,0.30
2023-04-12T16:01:00.605Z,0.52
2023-04-12T16:03:03.229Z,0.50
2023-04-12T16:05:07.221Z,0.30
2023-04-12T16:07:18.237Z,0.57
2023-04-12T16:09:22.883Z,0.50
2023-04-12T16:11:34.673Z,0.10
2023-04-12T16:13:38.664Z,0.20
2023-04-12T16:15:45.227Z,0.30
2023-04-12T16:17:49.816Z,0.10
2023-04-12T16:19:53.675Z,0.10
2023-04-12T16:22:03.572Z,0.13
2023-04-12T16:24:09.880Z,0.17
2023-04-12T16:26:13.766Z,0.10
2023-04-12T16:28:19.316Z,0.03
2023-04-12T16:30:24.060Z,0.10
2023-04-12T16:32:28.110Z,0.10
2023-04-12T16:34:32.511Z,0.10
2023-04-12T16:36:41.362Z,0.10
2023-04-12T16:38:47.382Z,1.02
2023-04-12T16:40:51.134Z,0.22
2023-04-12T16:42:54.513Z,0.10
2023-04-12T16:44:57.264Z,0.20
2023-04-12T16:47:01.234Z,0.43
2023-04-12T16:49:11.078Z,0.20
2023-04-12T16:51:14.193Z,0.38
2023-04-12T16:53:17.374Z,0.30
2023-04-12T16:55:21.029Z,0.38
2023-04-12T16:57:24.317Z,0.43
2023-04-12T16:59:27.168Z,0.50
2023-04-12T17:01:31.267Z,0.20
2023-04-12T17:06:27.788Z,0.32
2023-04-12T17:08:40.090Z,0.30
2023-04-12T17:11:00.885Z,0.40
2023-04-12T17:13:11.734Z,0.68
2023-04-12T17:17:39.264Z,0.43
2023-04-12T17:19:44.637Z,0.47
2023-04-12T17:21:49.246Z,0.38
2023-04-12T17:23:54.310Z,0.50
2023-04-12T17:26:01.583Z,0.75
2023-04-12T17:28:06.585Z,0.35
2023-04-12T17:30:14.712Z,0.75
2023-04-12T17:32:18.009Z,0.80
2023-04-12T17:39:18.355Z,0.60
2023-04-12T17:41:28.160Z,0.70
2023-04-12T17:43:33.405Z,0.60
2023-04-12T17:46:08.873Z,0.77
2023-04-12T17:48:23.077Z,0.95
2023-04-12T17:50:37.969Z,0.57
2023-04-12T17:52:52.893Z,0.57
2023-04-12T17:59:50.543Z,0.70
2023-04-12T18:02:52.089Z,1.13
2023-04-12T18:07:28.956Z,0.73
2023-04-12T18:09:55.069Z,1.15
2023-04-12T18:12:15.800Z,0.85
2023-04-12T18:14:38.597Z,0.60
2023-04-12T18:17:01.276Z,0.35
2023-04-12T18:19:26.530Z,0.70
2023-04-12T18:22:01.742Z,0.75
2023-04-12T18:24:25.123Z,0.80
2023-04-12T18:26:41.081Z,0.50
2023-04-12T18:28:51.036Z,0.70
2023-04-12T18:30:58.596Z,0.73
2023-04-12T18:35:36.528Z,0.60
2023-04-12T18:40:01.911Z,1.25
2023-04-12T18:42:05.234Z,1.00
2023-04-12T18:44:09.502Z,0.60
2023-04-12T18:46:18.016Z,0.90
2023-04-12T18:48:21.179Z,0.70
2023-04-12T18:50:24.660Z,0.50
2023-04-12T18:52:27.942Z,0.93
2023-04-12T18:54:30.792Z,1.15
2023-04-12T18:56:43.630Z,0.50
2023-04-12T18:58:55.233Z,0.50
2023-04-12T19:01:10.486Z,0.75
2023-04-12T19:03:14.007Z,0.68
2023-04-12T19:05:18.065Z,0.63
2023-04-12T19:07:21.496Z,0.43
2023-04-12T19:09:24.733Z,0.68
2023-04-12T19:11:28.067Z,1.15
2023-04-12T19:13:30.526Z,1.02
2023-04-12T19:15:33.008Z,1.05
2023-04-12T19:17:39.467Z,0.70
2023-04-12T19:19:43.088Z,1.13
2023-04-12T19:21:46.377Z,0.82
2023-04-12T19:23:48.959Z,1.42
2023-04-12T19:25:53.367Z,0.80
2023-04-12T19:27:56.391Z,1.50
2023-04-12T19:29:59.086Z,1.13
2023-04-12T19:32:03.014Z,1.00
2023-04-12T19:34:06.446Z,0.80
2023-04-12T19:36:09.893Z,1.02
2023-04-12T19:38:12.877Z,0.70
2023-04-12T19:40:15.938Z,0.40
2023-04-12T19:42:18.772Z,1.40
2023-04-12T19:44:23.745Z,1.17
2023-04-12T19:46:26.767Z,0.60
2023-04-12T19:48:30.469Z,0.38
2023-04-12T19:50:33.131Z,0.50
2023-04-12T19:52:36.232Z,1.15
2023-04-12T19:54:39.814Z,0.90
2023-04-12T19:56:42.672Z,0.60
2023-04-12T19:58:45.814Z,0.52
2023-04-12T20:00:52.594Z,0.80
2023-04-12T20:02:55.729Z,0.55
2023-04-12T20:05:00.125Z,0.85
2023-04-12T20:07:02.955Z,0.90
2023-04-12T20:09:06.126Z,0.57
2023-04-12T20:11:09.315Z,0.63
2023-04-12T20:13:16.001Z,1.42
2023-04-12T20:15:19.597Z,0.40
2023-04-12T20:17:22.916Z,0.40
2023-04-12T20:19:27.854Z,0.30
2023-04-12T20:21:32.560Z,0.50
2023-04-12T20:23:36.125Z,0.32
2023-04-12T20:25:39.033Z,0.20
2023-04-12T20:27:42.609Z,0.22
2023-04-12T20:29:47.796Z,0.30
2023-04-12T20:31:52.767Z,0.20
2023-04-12T20:33:57.352Z,0.20
2023-04-12T20:36:00.181Z,0.30
2023-04-12T20:38:03.719Z,0.20
2023-04-12T20:40:10.079Z,0.20
2023-04-12T20:42:13.578Z,0.45
2023-04-12T20:44:18.301Z,0.20
2023-04-12T20:46:25.997Z,0.20
2023-04-12T20:48:28.979Z,0.20
2023-04-12T20:50:31.475Z,0.10
2023-04-12T20:52:36.453Z,0.10
2023-04-12T20:54:39.329Z,0.22
2023-04-12T20:56:42.539Z,0.10
2023-04-12T20:58:46.260Z,0.10
2023-04-12T21:00:49.638Z,0.20
2023-04-12T21:02:52.177Z,0.22
2023-04-12T21:04:54.506Z,0.30
2023-04-12T21:06:57.889Z,0.20
2023-04-12T21:09:00.267Z,0.20
2023-04-12T21:11:02.930Z,0.20
2023-04-12T21:13:05.283Z,0.30
2023-04-12T21:15:08.779Z,0.10
2023-04-12T21:17:10.948Z,0.20
2023-04-12T21:19:13.508Z,0.20
2023-04-12T21:21:16.192Z,0.20
2023-04-12T21:23:18.844Z,0.20
2023-04-12T21:25:21.453Z,0.20
2023-04-12T21:27:23.613Z,0.10
2023-04-12T21:29:25.653Z,0.10
2023-04-12T21:31:29.262Z,0.20
2023-04-12T21:33:32.340Z,0.10
2023-04-12T21:35:34.499Z,0.10
2023-04-12T21:37:38.472Z,0.20
2023-04-12T21:39:40.655Z,0.20
2023-04-12T21:41:42.794Z,0.43
2023-04-12T21:43:47.780Z,0.10
2023-04-12T21:45:49.827Z,0.20
2023-04-12T21:47:53.681Z,0.30
2023-04-12T21:49:55.960Z,0.10
2023-04-12T21:51:59.281Z,0.22
2023-04-12T21:54:01.889Z,0.10
2023-04-12T21:56:05.619Z,0.10
2023-04-12T21:58:07.749Z,0.10
2023-04-12T22:00:10.853Z,0.10
2023-04-12T22:02:13.159Z,0.20
2023-04-12T22:04:15.245Z,0.17
2023-04-12T22:06:19.782Z,0.10
2023-04-12T22:08:23.934Z,0.10
2023-04-12T22:10:25.896Z,0.00
2023-04-12T22:12:27.974Z,0.10
2023-04-12T22:14:29.890Z,0.10
2023-04-12T22:16:33.075Z,0.20
2023-04-12T22:18:35.930Z,0.10
2023-04-12T22:20:38.481Z,0.15
2023-04-12T22:22:41.511Z,0.10
2023-04-12T22:24:44.344Z,0.10
2023-04-12T22:26:46.322Z,0.10
2023-04-12T22:28:50.157Z,0.10
2023-04-12T22:30:52.423Z,0.03
2023-04-12T22:32:54.693Z,0.30
2023-04-12T22:35:08.278Z,0.00
2023-04-12T22:37:12.070Z,0.05
2023-04-12T22:39:18.285Z,0.10
2023-04-12T22:41:20.519Z,0.10
2023-04-12T22:43:22.968Z,0.03
2023-04-12T22:45:25.229Z,0.10
2023-04-12T22:47:27.380Z,0.10
2023-04-12T22:49:29.441Z,0.10
2023-04-12T22:51:32.763Z,0.10
2023-04-12T22:53:34.779Z,0.10
2023-04-12T22:55:36.916Z,0.10
2023-04-12T22:57:39.072Z,0.00
2023-04-12T22:59:41.015Z,0.00
2023-04-12T23:01:44.906Z,0.05
2023-04-12T23:03:47.112Z,0.10
2023-04-12T23:05:50.392Z,0.08
2023-04-12T23:07:52.443Z,0.10
2023-04-12T23:09:56.215Z,0.15
2023-04-12T23:11:58.326Z,0.10
2023-04-12T23:14:00.708Z,0.10
2023-04-12T23:16:03.762Z,0.20
2023-04-12T23:18:08.691Z,0.03
2023-04-12T23:20:13.510Z,0.15
2023-04-12T23:22:44.572Z,0.00
2023-04-12T23:24:54.473Z,0.08
2023-04-12T23:26:58.041Z,0.08
2023-04-12T23:29:02.454Z,0.10
2023-04-12T23:31:05.893Z,0.10
2023-04-12T23:33:09.495Z,0.10
2023-04-12T23:35:12.336Z,0.20
2023-04-12T23:37:15.201Z,0.80
2023-04-12T23:39:18.253Z,0.10
2023-04-12T23:41:20.260Z,0.10
2023-04-12T23:43:23.637Z,0.10
2023-04-12T23:45:25.920Z,0.10
2023-04-12T23:47:27.936Z,0.30
2023-04-12T23:49:29.846Z,0.13
2023-04-12T23:51:31.856Z,0.30
2023-04-12T23:53:33.880Z,0.10
2023-04-12T23:55:36.016Z,0.20
2023-04-12T23:57:37.983Z,0.15
2023-04-12T23:59:40.069Z,0.10
